createdAt,value
2023-05-22T00:01:14.986Z,101166.50
2023-05-22T00:04:21.627Z,101161.31
2023-05-22T00:07:24.449Z,101150.06
2023-05-22T00:10:26.900Z,101150.59
2023-05-22T00:13:29.326Z,101154.47
2023-05-22T00:16:31.899Z,101161.28
2023-05-22T00:19:35.165Z,101160.16
2023-05-22T00:22:38.288Z,101160.16
2023-05-22T00:25:41.327Z,101153.63
2023-05-22T00:28:43.977Z,101151.72
2023-05-22T00:31:46.391Z,101152.53
2023-05-22T00:34:49.001Z,101153.88
2023-05-22T00:37:51.414Z,101150.88
2023-05-22T00:40:53.882Z,101136.97
2023-05-22T00:43:56.252Z,101147.84
2023-05-22T00:46:58.879Z,101142.38
2023-05-22T00:50:01.654Z,101147.84
2023-05-22T00:53:04.277Z,101136.91
2023-05-22T00:56:07.428Z,101151.41
2023-05-22T00:59:09.870Z,101150.31
2023-05-22T01:02:13.699Z,101141.53
2023-05-22T01:05:18.419Z,101142.09
2023-05-22T01:08:21.596Z,101152.22
2023-05-22T01:11:38.903Z,101147.56
2023-05-22T01:14:48.091Z,101141.81
2023-05-22T01:18:01.946Z,101153.31
2023-05-22T01:21:13.171Z,101153.00
2023-05-22T01:24:48.730Z,101148.06
2023-05-22T01:28:03.938Z,101153.50
2023-05-22T01:31:08.361Z,101149.72
2023-05-22T01:34:14.411Z,101149.41
2023-05-22T01:37:17.841Z,101148.59
2023-05-22T01:40:20.353Z,101121.75
2023-05-22T01:43:22.912Z,101142.56
2023-05-22T01:46:29.497Z,101143.03
2023-05-22T01:49:36.048Z,101156.66
2023-05-22T01:52:52.464Z,101149.03
2023-05-22T01:56:17.449Z,101149.31
2023-05-22T01:59:49.846Z,101152.28
2023-05-22T02:02:58.530Z,101159.63
2023-05-22T02:06:05.614Z,101124.03
2023-05-22T02:09:08.737Z,101151.50
2023-05-22T02:12:14.333Z,101147.16
2023-05-22T02:15:16.738Z,101135.69
2023-05-22T02:18:19.361Z,101133.47
2023-05-22T02:21:22.901Z,101132.38
2023-05-22T02:24:25.708Z,101136.72
2023-05-22T02:27:28.709Z,101135.09
2023-05-22T02:30:31.191Z,101138.59
2023-05-22T02:33:33.738Z,101132.56
2023-05-22T02:36:37.439Z,101136.13
2023-05-22T02:39:40.119Z,101124.94
2023-05-22T02:42:42.509Z,101130.66
2023-05-22T02:45:45.690Z,101129.84
2023-05-22T02:48:48.264Z,101127.56
2023-05-22T02:51:50.747Z,101132.78
2023-05-22T02:54:53.169Z,101131.22
2023-05-22T02:57:57.107Z,101127.22
2023-05-22T03:01:00.825Z,101130.53
2023-05-22T03:04:03.349Z,101132.75
2023-05-22T03:07:07.366Z,101128.94
2023-05-22T03:10:09.930Z,101131.69
2023-05-22T03:13:12.600Z,101124.88
2023-05-22T03:16:15.280Z,101125.47
2023-05-22T03:19:20.916Z,101120.81
2023-05-22T03:22:23.628Z,101117.25
2023-05-22T03:25:26.463Z,101124.13
2023-05-22T03:28:28.838Z,101116.97
2023-05-22T03:31:33.061Z,101126.56
2023-05-22T03:34:42.472Z,101112.34
2023-05-22T03:37:47.258Z,101129.28
2023-05-22T03:40:50.552Z,101120.50
2023-05-22T03:43:53.169Z,101110.75
2023-05-22T03:46:57.217Z,101113.41
2023-05-22T03:49:59.599Z,101121.44
2023-05-22T03:53:03.566Z,101119.28
2023-05-22T03:56:06.815Z,101114.75
2023-05-22T03:59:09.374Z,101112.84
2023-05-22T04:02:13.233Z,101113.84
2023-05-22T04:05:15.815Z,101116.53
2023-05-22T04:08:19.339Z,101113.72
2023-05-22T04:11:22.368Z,101102.78
2023-05-22T04:14:24.778Z,101105.47
2023-05-22T04:17:33.355Z,101108.97
2023-05-22T04:20:35.945Z,101103.00
2023-05-22T04:23:38.756Z,101101.19
2023-05-22T04:26:42.583Z,101087.13
2023-05-22T04:29:47.642Z,101101.25
2023-05-22T04:32:50.082Z,101108.81
2023-05-22T04:35:52.772Z,101110.09
2023-05-22T04:38:55.837Z,101101.47
2023-05-22T04:41:58.447Z,101094.34
2023-05-22T04:45:01.558Z,101091.75
2023-05-22T04:48:04.212Z,101101.16
2023-05-22T04:51:10.316Z,101095.84
2023-05-22T04:54:12.811Z,101095.34
2023-05-22T04:57:15.226Z,101092.31
2023-05-22T05:00:18.217Z,101082.13
2023-05-22T05:03:22.982Z,101084.03
2023-05-22T05:06:26.382Z,101086.44
2023-05-22T05:09:28.842Z,101083.75
2023-05-22T05:12:31.349Z,101089.19
2023-05-22T05:15:34.309Z,101094.09
2023-05-22T05:18:38.306Z,101096.75
2023-05-22T05:21:41.183Z,101091.31
2023-05-22T05:24:44.015Z,101086.44
2023-05-22T05:27:46.787Z,101090.84
2023-05-22T05:30:50.109Z,101090.75
2023-05-22T05:34:11.247Z,101089.31
2023-05-22T05:37:36.972Z,101083.72
2023-05-22T05:40:42.123Z,101067.91
2023-05-22T05:43:46.144Z,101090.91
2023-05-22T05:46:48.954Z,101087.84
2023-05-22T05:49:53.733Z,101086.91
2023-05-22T05:52:56.405Z,101089.34
2023-05-22T05:55:59.463Z,101086.06
2023-05-22T05:59:04.453Z,101083.50
2023-05-22T06:02:12.989Z,101083.06
2023-05-22T06:05:19.576Z,101075.69
2023-05-22T06:08:25.136Z,101077.81
2023-05-22T06:11:28.353Z,101073.22
2023-05-22T06:14:31.018Z,101075.25
2023-05-22T06:17:34.854Z,101074.25
2023-05-22T06:20:37.566Z,101079.06
2023-05-22T06:23:40.652Z,101069.00
2023-05-22T06:26:43.744Z,101071.34
2023-05-22T06:29:47.844Z,101073.44
2023-05-22T06:32:50.859Z,101069.34
2023-05-22T06:35:55.592Z,101072.28
2023-05-22T06:38:58.483Z,101060.41
2023-05-22T06:42:36.210Z,101070.72
2023-05-22T06:46:03.337Z,101063.03
2023-05-22T06:49:26.458Z,101065.28
2023-05-22T06:52:32.016Z,101071.81
2023-05-22T06:55:35.154Z,101072.19
2023-05-22T06:58:45.508Z,101065.28
2023-05-22T07:01:48.504Z,101071.66
2023-05-22T07:04:56.308Z,101072.75
2023-05-22T07:08:12.470Z,101055.47
2023-05-22T07:11:15.072Z,101067.53
2023-05-22T07:14:18.312Z,101067.09
2023-05-22T07:17:22.211Z,101067.72
2023-05-22T07:20:26.430Z,101066.84
2023-05-22T07:23:47.118Z,101074.00
2023-05-22T07:26:49.691Z,101065.97
2023-05-22T07:29:53.015Z,101066.16
2023-05-22T07:32:56.807Z,101064.31
2023-05-22T07:36:00.145Z,101062.75
2023-05-22T07:39:02.617Z,101065.31
2023-05-22T07:42:08.214Z,101058.03
2023-05-22T07:45:17.511Z,101060.47
2023-05-22T07:48:20.796Z,101056.97
2023-05-22T07:51:23.537Z,101052.25
2023-05-22T07:54:27.364Z,101065.63
2023-05-22T07:57:30.390Z,101063.88
2023-05-22T08:00:37.951Z,101060.97
2023-05-22T08:03:40.588Z,101050.31
2023-05-22T08:06:44.459Z,101056.47
2023-05-22T08:09:46.967Z,101053.31
2023-05-22T08:12:49.609Z,101049.50
2023-05-22T08:16:00.424Z,101049.66
2023-05-22T08:19:03.579Z,101047.81
2023-05-22T08:22:06.194Z,101051.25
2023-05-22T08:25:09.344Z,101055.84
2023-05-22T08:28:12.031Z,101041.72
2023-05-22T08:31:15.773Z,101042.75
2023-05-22T08:34:18.258Z,101045.91
2023-05-22T08:37:21.353Z,101048.88
2023-05-22T08:40:24.867Z,101052.34
2023-05-22T08:43:28.743Z,101050.72
2023-05-22T08:46:31.812Z,101054.34
2023-05-22T08:49:34.746Z,101048.47
2023-05-22T08:52:48.468Z,101050.06
2023-05-22T08:55:53.377Z,101043.69
2023-05-22T08:58:56.320Z,101036.97
2023-05-22T09:01:58.717Z,101040.00
2023-05-22T09:05:02.221Z,101048.22
2023-05-22T09:08:15.809Z,101041.56
2023-05-22T09:11:22.845Z,101027.84
2023-05-22T09:14:25.557Z,101032.47
2023-05-22T09:17:28.013Z,101030.06
2023-05-22T09:20:31.101Z,101026.44
2023-05-22T09:23:33.725Z,101019.94
2023-05-22T09:26:36.984Z,101022.06
2023-05-22T09:29:53.418Z,101014.38
2023-05-22T09:32:57.255Z,101009.16
2023-05-22T09:36:00.427Z,101006.19
2023-05-22T09:39:04.464Z,101007.34
2023-05-22T09:42:06.983Z,101007.63
2023-05-22T09:45:09.757Z,101002.78
2023-05-22T09:48:13.128Z,100999.38
2023-05-22T09:51:16.679Z,101001.00
2023-05-22T09:54:21.852Z,100996.69
2023-05-22T09:57:29.202Z,101001.63
2023-05-22T10:00:34.322Z,100998.03
2023-05-22T10:03:38.361Z,100997.47
2023-05-22T10:06:41.982Z,100988.47
2023-05-22T10:09:46.986Z,100988.94
2023-05-22T10:12:54.095Z,100982.44
2023-05-22T10:15:56.800Z,100977.00
2023-05-22T10:18:59.547Z,100975.19
2023-05-22T10:22:02.223Z,100980.38
2023-05-22T10:25:05.623Z,100978.59
2023-05-22T10:28:08.966Z,100977.91
2023-05-22T10:31:34.770Z,100978.16
2023-05-22T10:35:41.688Z,100969.22
2023-05-22T10:38:59.050Z,100958.69
2023-05-22T10:42:01.470Z,100962.16
2023-05-22T10:45:05.532Z,100959.59
2023-05-22T10:48:10.497Z,100956.28
2023-05-22T10:51:19.514Z,100949.31
2023-05-22T10:54:49.270Z,100947.72
2023-05-22T10:57:57.087Z,100941.84
2023-05-22T11:01:15.055Z,100933.53
2023-05-22T11:04:19.315Z,100937.22
2023-05-22T11:07:27.014Z,100934.81
2023-05-22T11:10:53.366Z,100919.66
2023-05-22T11:14:15.431Z,100914.03
2023-05-22T11:17:21.009Z,100924.06
2023-05-22T11:20:24.832Z,100918.47
2023-05-22T11:23:29.878Z,100917.22
2023-05-22T11:26:32.456Z,100911.56
2023-05-22T11:29:35.753Z,100914.88
2023-05-22T11:32:39.432Z,100920.19
2023-05-22T11:35:43.409Z,100910.34
2023-05-22T11:38:46.086Z,100908.66
2023-05-22T11:41:49.051Z,100909.69
2023-05-22T11:44:51.741Z,100906.47
2023-05-22T11:47:54.724Z,100894.16
2023-05-22T11:50:57.708Z,100900.38
2023-05-22T11:54:00.244Z,100891.50
2023-05-22T11:57:06.051Z,100887.78
2023-05-22T12:00:10.936Z,100899.56
2023-05-22T12:03:17.808Z,100904.75
2023-05-22T12:06:20.472Z,100884.50
2023-05-22T12:09:23.354Z,100899.88
2023-05-22T12:12:26.393Z,100888.69
2023-05-22T12:15:28.765Z,100882.13
2023-05-22T12:18:37.854Z,100883.75
2023-05-22T12:21:42.143Z,100881.72
2023-05-22T12:24:49.342Z,100875.09
2023-05-22T12:27:52.010Z,100877.16
2023-05-22T12:30:58.263Z,100879.41
2023-05-22T12:34:00.761Z,100868.31
2023-05-22T12:37:03.197Z,100875.22
2023-05-22T12:40:06.189Z,100862.69
2023-05-22T12:43:08.575Z,100865.22
2023-05-22T12:46:11.011Z,100866.25
2023-05-22T12:49:13.449Z,100848.84
2023-05-22T12:52:16.062Z,100859.84
2023-05-22T12:55:18.573Z,100847.44
2023-05-22T12:58:20.933Z,100859.59
2023-05-22T13:01:24.453Z,100845.41
2023-05-22T13:04:26.958Z,100849.81
2023-05-22T13:07:29.306Z,100842.72
2023-05-22T13:10:31.713Z,100844.22
2023-05-22T13:13:34.164Z,100842.44
2023-05-22T13:16:36.942Z,100838.09
2023-05-22T13:19:39.435Z,100832.97
2023-05-22T13:22:41.994Z,100842.19
2023-05-22T13:25:44.387Z,100827.38
2023-05-22T13:28:46.805Z,100829.56
2023-05-22T13:31:49.232Z,100834.84
2023-05-22T13:34:51.538Z,100832.41
2023-05-22T13:37:54.352Z,100825.94
2023-05-22T13:40:56.863Z,100818.66
2023-05-22T13:43:59.311Z,100825.19
2023-05-22T13:47:01.794Z,100812.25
2023-05-22T13:50:05.350Z,100813.38
2023-05-22T13:53:23.573Z,100810.47
2023-05-22T13:56:26.324Z,100808.25
2023-05-22T13:59:29.807Z,100808.59
2023-05-22T14:02:32.401Z,100800.75
2023-05-22T14:05:34.871Z,100801.53
2023-05-22T14:08:37.268Z,100799.91
2023-05-22T14:11:39.754Z,100800.66
2023-05-22T14:14:42.264Z,100793.44
2023-05-22T14:17:44.599Z,100800.88
2023-05-22T14:20:47.139Z,100804.56
2023-05-22T14:23:49.553Z,100799.78
2023-05-22T14:26:51.989Z,100797.75
2023-05-22T14:29:54.463Z,100786.25
2023-05-22T14:32:56.828Z,100800.97
2023-05-22T14:35:59.267Z,100795.22
2023-05-22T14:39:01.627Z,100797.09
2023-05-22T14:42:04.126Z,100793.44
2023-05-22T14:45:06.797Z,100779.72
2023-05-22T14:48:11.155Z,100788.41
2023-05-22T14:51:13.911Z,100786.38
2023-05-22T14:54:20.148Z,100780.69
2023-05-22T14:57:22.645Z,100777.84
2023-05-22T15:00:25.196Z,100768.66
2023-05-22T15:03:27.625Z,100762.69
2023-05-22T15:06:30.033Z,100764.69
2023-05-22T15:09:32.722Z,100754.16
2023-05-22T15:12:35.092Z,100752.88
2023-05-22T15:15:37.538Z,100750.13
2023-05-22T15:18:40.066Z,100753.28
2023-05-22T15:21:42.709Z,100751.66
2023-05-22T15:24:48.310Z,100747.53
2023-05-22T15:27:50.611Z,100746.50
2023-05-22T15:30:53.130Z,100737.53
2023-05-22T15:33:55.624Z,100742.84
2023-05-22T15:36:57.993Z,100737.44
2023-05-22T15:40:05.929Z,100733.63
2023-05-22T15:43:08.692Z,100722.72
2023-05-22T15:46:14.559Z,100725.50
2023-05-22T15:49:17.046Z,100720.50
2023-05-22T15:52:21.145Z,100723.47
2023-05-22T15:55:23.697Z,100718.56
2023-05-22T15:58:26.124Z,100717.13
2023-05-22T16:01:29.612Z,100710.56
2023-05-22T16:04:32.366Z,100715.94
2023-05-22T16:07:34.977Z,100706.97
2023-05-22T16:10:37.927Z,100705.69
2023-05-22T16:13:40.506Z,100702.88
2023-05-22T16:16:43.806Z,100705.84
2023-05-22T16:19:46.188Z,100697.84
2023-05-22T16:22:49.186Z,100701.00
2023-05-22T16:25:51.596Z,100696.78
2023-05-22T16:28:53.992Z,100692.84
2023-05-22T16:31:57.235Z,100698.84
2023-05-22T16:34:59.986Z,100696.66
2023-05-22T16:38:03.096Z,100694.63
2023-05-22T16:41:05.549Z,100698.81
2023-05-22T16:44:08.300Z,100693.47
2023-05-22T16:47:10.858Z,100694.00
2023-05-22T16:50:13.531Z,100689.91
2023-05-22T16:53:19.667Z,100682.69
2023-05-22T16:56:25.368Z,100695.56
2023-05-22T16:59:28.889Z,100700.22
2023-05-22T17:02:32.138Z,100697.72
2023-05-22T17:05:35.593Z,100693.75
2023-05-22T17:08:40.923Z,100686.66
2023-05-22T17:11:43.613Z,100692.91
2023-05-22T17:14:46.457Z,100697.66
2023-05-22T17:17:49.583Z,100701.50
2023-05-22T17:20:56.632Z,100691.66
2023-05-22T17:24:01.625Z,100690.75
2023-05-22T17:27:04.672Z,100697.72
2023-05-22T17:30:08.631Z,100692.34
2023-05-22T17:33:13.291Z,100694.25
2023-05-22T17:36:16.569Z,100694.47
2023-05-22T17:39:22.462Z,100699.09
2023-05-22T17:42:25.651Z,100700.44
2023-05-22T17:45:28.625Z,100705.28
2023-05-22T17:48:34.302Z,100698.25
2023-05-22T17:51:37.657Z,100706.69
2023-05-22T17:54:43.294Z,100700.91
2023-05-22T17:57:46.635Z,100684.78
2023-05-22T18:00:49.414Z,100694.81
2023-05-22T18:03:55.360Z,100692.34
2023-05-22T18:06:58.384Z,100684.56
2023-05-22T18:10:01.447Z,100689.69
2023-05-22T18:13:04.644Z,100683.47
2023-05-22T18:16:08.132Z,100691.59
2023-05-22T18:19:11.584Z,100692.00
2023-05-22T18:22:19.371Z,100693.88
2023-05-22T18:25:22.064Z,100688.13
2023-05-22T18:28:28.364Z,100686.75
2023-05-22T18:31:31.309Z,100679.50
2023-05-22T18:34:36.516Z,100686.38
2023-05-22T18:37:40.823Z,100689.50
2023-05-22T18:40:45.026Z,100690.84
2023-05-22T18:43:48.875Z,100685.63
2023-05-22T18:46:52.438Z,100687.47
2023-05-22T18:49:56.572Z,100698.25
2023-05-22T18:53:00.799Z,100689.63
2023-05-22T18:56:04.156Z,100695.16
2023-05-22T18:59:08.819Z,100687.25
2023-05-22T19:02:13.093Z,100669.84
2023-05-22T19:05:17.351Z,100693.06
2023-05-22T19:08:21.171Z,100688.84
2023-05-22T19:11:26.422Z,100686.22
2023-05-22T19:14:31.152Z,100682.94
2023-05-22T19:17:35.940Z,100692.84
2023-05-22T19:20:42.975Z,100688.94
2023-05-22T19:23:46.904Z,100691.31
2023-05-22T19:26:51.153Z,100685.00
2023-05-22T19:29:55.060Z,100687.44
2023-05-22T19:32:59.151Z,100692.22
2023-05-22T19:36:07.924Z,100689.50
2023-05-22T19:39:15.215Z,100693.53
2023-05-22T19:42:19.298Z,100682.69
2023-05-22T19:45:22.956Z,100687.66
2023-05-22T19:48:26.507Z,100678.75
2023-05-22T19:51:30.153Z,100692.41
2023-05-22T19:54:34.003Z,100686.78
2023-05-22T19:57:45.463Z,100683.75
2023-05-22T20:00:49.899Z,100682.44
2023-05-22T20:03:56.883Z,100680.56
2023-05-22T20:07:00.585Z,100680.72
2023-05-22T20:10:07.493Z,100688.84
2023-05-22T20:13:11.472Z,100687.66
2023-05-22T20:16:16.370Z,100676.28
2023-05-22T20:19:20.698Z,100690.84
2023-05-22T20:22:24.626Z,100686.72
2023-05-22T20:25:28.252Z,100670.31
2023-05-22T20:28:32.655Z,100682.94
2023-05-22T20:31:37.489Z,100673.22
2023-05-22T20:34:42.007Z,100673.13
2023-05-22T20:37:46.342Z,100672.50
2023-05-22T20:40:48.874Z,100670.13
2023-05-22T20:43:54.442Z,100671.84
2023-05-22T20:46:56.990Z,100670.63
2023-05-22T20:49:59.385Z,100676.03
2023-05-22T20:53:01.855Z,100663.19
2023-05-22T20:56:04.250Z,100667.72
2023-05-22T20:59:06.638Z,100665.66
2023-05-22T21:02:09.090Z,100662.50
2023-05-22T21:05:11.681Z,100662.84
2023-05-22T21:08:14.130Z,100661.34
2023-05-22T21:11:19.986Z,100661.16
2023-05-22T21:14:22.472Z,100661.34
2023-05-22T21:17:25.222Z,100659.47
2023-05-22T21:20:27.757Z,100668.66
2023-05-22T21:23:30.127Z,100666.53
2023-05-22T21:26:32.581Z,100668.59
2023-05-22T21:29:35.211Z,100669.81
2023-05-22T21:32:37.754Z,100658.03
2023-05-22T21:35:40.231Z,100661.31
2023-05-22T21:38:42.705Z,100668.63
2023-05-22T21:41:45.117Z,100665.72
2023-05-22T21:44:47.934Z,100674.19
2023-05-22T21:47:50.383Z,100665.66
2023-05-22T21:50:52.768Z,100664.63
2023-05-22T21:53:55.121Z,100659.75
2023-05-22T21:56:57.561Z,100653.25
2023-05-22T21:59:59.993Z,100661.19
2023-05-22T22:03:02.914Z,100654.41
2023-05-22T22:06:05.685Z,100659.44
2023-05-22T22:09:09.325Z,100663.81
2023-05-22T22:12:12.265Z,100663.22
2023-05-22T22:15:14.752Z,100660.31
2023-05-22T22:18:17.233Z,100662.00
2023-05-22T22:21:19.629Z,100656.94
2023-05-22T22:24:22.302Z,100656.19
2023-05-22T22:27:24.963Z,100650.75
2023-05-22T22:30:27.279Z,100654.19
2023-05-22T22:33:30.581Z,100636.72
2023-05-22T22:36:33.669Z,100647.59
2023-05-22T22:39:36.121Z,100645.97
2023-05-22T22:42:38.395Z,100647.97
2023-05-22T22:45:41.169Z,100644.22
2023-05-22T22:48:43.828Z,100647.78
2023-05-22T22:51:46.304Z,100632.84
2023-05-22T22:54:49.185Z,100631.25
2023-05-22T22:57:52.065Z,100635.25
2023-05-22T23:00:54.765Z,100643.28
2023-05-22T23:03:57.153Z,100648.88
2023-05-22T23:06:59.754Z,100659.34
2023-05-22T23:10:02.237Z,100646.25
2023-05-22T23:13:04.964Z,100649.16
2023-05-22T23:16:07.559Z,100639.50
2023-05-22T23:19:11.556Z,100646.16
2023-05-22T23:22:14.190Z,100636.13
2023-05-22T23:25:16.631Z,100636.19
2023-05-22T23:28:19.005Z,100640.59
2023-05-22T23:31:26.018Z,100636.75
2023-05-22T23:34:28.593Z,100628.34
2023-05-22T23:37:30.991Z,100628.34
2023-05-22T23:40:33.424Z,100623.31
2023-05-22T23:43:36.031Z,100630.16
2023-05-22T23:46:39.855Z,100615.34
2023-05-22T23:49:42.347Z,100616.19
2023-05-22T23:52:44.809Z,100613.41
2023-05-22T23:55:47.304Z,100621.94
2023-05-22T23:58:49.636Z,100615.41
